Anvil, Mississippi
Current Conditions -  °F | °C
As of 5:15 AM on Friday 28 Nov 2014 (Local Time) from KCRX Reporting Station
NA  
Wind Chill: 25°   Ceiling: NA
Heat Index: 25°   Visibility: NA
Dew Point: 23°   Wind: 0mph
Humidity: 93%   Direction: NA
Pressure: 30.43"   Gusts: NA
Location:  34.9009°N, 88.9211°W
Report Text: KCRX 281115Z AUTO 00000KT M04/M05 A3043 RMK AO2
Loading
Personal Weather Stations






























Interactive Weather Map New forecast layout! Learn more

10-Day Weather Forecast

Advertisements
Track Severe Weather on mobile